createdAt,value
2019-05-19T00:00:40.213Z,69.17
2019-05-19T00:01:40.219Z,69.57
2019-05-19T00:02:40.936Z,69.57
2019-05-19T00:03:40.178Z,69.88
2019-05-19T00:04:40.179Z,70.08
2019-05-19T00:05:40.176Z,70.18
2019-05-19T00:06:40.176Z,70.42
2019-05-19T00:07:40.143Z,70.01
2019-05-19T00:08:40.139Z,69.68
2019-05-19T00:09:40.118Z,69.41
2019-05-19T00:10:40.120Z,69.48
2019-05-19T00:11:40.104Z,69.37
2019-05-19T00:12:40.155Z,69.27
2019-05-19T00:13:40.077Z,69.68
2019-05-19T00:14:40.066Z,69.98
2019-05-19T00:15:40.057Z,69.78
2019-05-19T00:16:40.054Z,69.71
2019-05-19T00:17:40.047Z,69.61
2019-05-19T00:18:40.057Z,69.98
2019-05-19T00:19:40.022Z,70.01
2019-05-19T00:20:39.998Z,70.21
2019-05-19T00:21:39.986Z,70.12
2019-05-19T00:22:39.983Z,70.12
2019-05-19T00:23:39.975Z,70.21
2019-05-19T00:24:39.971Z,70.42
2019-05-19T00:25:39.951Z,70.52
2019-05-19T00:26:39.933Z,70.21
2019-05-19T00:27:39.927Z,70.42
2019-05-19T00:28:39.923Z,70.42
2019-05-19T00:29:39.931Z,70.83
2019-05-19T00:30:39.905Z,70.62
2019-05-19T00:31:39.883Z,70.62
2019-05-19T00:32:39.867Z,70.52
2019-05-19T00:33:39.857Z,70.65
2019-05-19T00:34:39.858Z,70.42
2019-05-19T00:35:39.864Z,70.56
2019-05-19T00:36:39.840Z,70.52
2019-05-19T00:37:39.827Z,70.62
2019-05-19T00:38:39.814Z,70.45
2019-05-19T00:39:39.801Z,70.62
2019-05-19T00:40:39.790Z,70.65
2019-05-19T00:41:39.804Z,70.62
2019-05-19T00:42:39.769Z,70.42
2019-05-19T00:43:39.755Z,69.92
2019-05-19T00:44:39.739Z,70.21
2019-05-19T00:45:39.740Z,69.98
2019-05-19T00:46:39.745Z,69.48
2019-05-19T00:47:39.725Z,69.48
2019-05-19T00:48:39.707Z,69.48
2019-05-19T00:49:41.664Z,69.37
2019-05-19T00:50:39.685Z,69.57
2019-05-19T00:51:39.674Z,69.57
2019-05-19T00:52:39.685Z,69.88
2019-05-19T00:53:39.648Z,69.92
2019-05-19T00:54:39.641Z,69.92
2019-05-19T00:55:39.632Z,70.01
2019-05-19T00:56:39.610Z,70.72
2019-05-19T00:57:39.603Z,70.52
2019-05-19T00:58:39.611Z,70.52
2019-05-19T00:59:39.601Z,70.96
2019-05-19T01:00:39.581Z,70.52
2019-05-19T01:01:39.560Z,70.86
2019-05-19T01:02:39.555Z,70.96
2019-05-19T01:03:39.569Z,71.06
2019-05-19T01:04:39.534Z,71.47
2019-05-19T01:05:39.519Z,71.37
2019-05-19T01:06:39.501Z,72.08
2019-05-19T01:07:39.500Z,71.47
2019-05-19T01:08:39.489Z,72.11
2019-05-19T01:09:39.491Z,71.97
2019-05-19T01:10:39.480Z,72.11
2019-05-19T01:11:39.453Z,72.11
2019-05-19T01:12:39.443Z,72.08
2019-05-19T01:13:39.439Z,72.11
2019-05-19T01:14:39.437Z,72.01
2019-05-19T01:15:39.415Z,71.91
2019-05-19T01:16:39.403Z,71.80
2019-05-19T01:17:39.386Z,71.80
2019-05-19T01:18:39.379Z,71.80
2019-05-19T01:19:39.390Z,71.70
2019-05-19T01:20:39.356Z,72.41
2019-05-19T01:21:39.346Z,71.80
2019-05-19T01:22:39.343Z,72.61
2019-05-19T01:23:39.331Z,72.31
2019-05-19T01:24:39.322Z,72.34
2019-05-19T01:25:39.341Z,72.31
2019-05-19T01:26:39.300Z,72.61
2019-05-19T01:27:39.284Z,72.61
2019-05-19T01:28:39.285Z,72.11
2019-05-19T01:29:39.250Z,72.34
2019-05-19T01:30:39.248Z,72.01
2019-05-19T01:31:39.253Z,72.92
2019-05-19T01:32:39.234Z,72.72
2019-05-19T01:33:39.237Z,72.65
2019-05-19T01:34:39.219Z,72.65
2019-05-19T01:35:39.198Z,73.26
2019-05-19T01:36:39.207Z,72.55
2019-05-19T01:37:39.215Z,72.65
2019-05-19T01:38:39.155Z,72.85
2019-05-19T01:39:39.149Z,73.26
2019-05-19T01:40:39.166Z,73.57
2019-05-19T01:41:39.125Z,73.46
2019-05-19T01:42:39.138Z,73.57
2019-05-19T01:43:39.103Z,73.46
2019-05-19T01:44:39.096Z,73.66
2019-05-19T01:45:39.092Z,73.77
2019-05-19T01:46:39.138Z,74.17
2019-05-19T01:47:39.078Z,73.97
2019-05-19T01:48:39.067Z,74.01
2019-05-19T01:49:39.040Z,73.80
2019-05-19T01:50:39.028Z,74.31
2019-05-19T01:51:39.017Z,74.31
2019-05-19T01:52:39.011Z,74.21
2019-05-19T01:53:39.013Z,74.51
2019-05-19T01:54:38.991Z,74.01
2019-05-19T01:55:38.979Z,74.21
2019-05-19T01:56:38.962Z,74.10
2019-05-19T01:57:38.963Z,74.41
2019-05-19T01:58:38.974Z,74.01
2019-05-19T01:59:38.930Z,73.90
2019-05-19T02:00:38.917Z,74.41
2019-05-19T02:01:38.923Z,74.51
2019-05-19T02:02:38.903Z,74.51
2019-05-19T02:03:38.890Z,74.31
2019-05-19T02:04:38.894Z,74.31
2019-05-19T02:05:38.871Z,74.41
2019-05-19T02:06:38.862Z,74.41
2019-05-19T02:07:38.842Z,74.41
2019-05-19T02:08:38.845Z,74.21
2019-05-19T02:09:38.840Z,74.21
2019-05-19T02:10:38.818Z,74.41
2019-05-19T02:11:38.823Z,74.51
2019-05-19T02:12:38.809Z,74.62
2019-05-19T02:13:38.781Z,74.10
2019-05-19T02:14:38.787Z,73.94
2019-05-19T02:15:38.761Z,74.71
2019-05-19T02:16:38.759Z,73.94
2019-05-19T02:17:38.738Z,74.75
2019-05-19T02:18:38.730Z,74.75
2019-05-19T02:19:38.743Z,74.71
2019-05-19T02:20:38.701Z,74.55
2019-05-19T02:21:38.694Z,74.85
2019-05-19T02:22:38.685Z,74.82
2019-05-19T02:23:38.669Z,73.90
2019-05-19T02:24:38.670Z,74.85
2019-05-19T02:25:38.689Z,74.01
2019-05-19T02:26:38.640Z,74.34
2019-05-19T02:27:38.631Z,74.55
2019-05-19T02:28:38.610Z,74.14
2019-05-19T02:29:38.600Z,74.44
2019-05-19T02:30:38.615Z,74.55
2019-05-19T02:31:38.588Z,74.44
2019-05-19T02:32:38.574Z,74.71
2019-05-19T02:33:38.557Z,74.34
2019-05-19T02:34:38.550Z,74.51
2019-05-19T02:35:38.567Z,74.55
2019-05-19T02:36:38.532Z,74.34
2019-05-19T02:37:38.533Z,74.31
2019-05-19T02:38:38.511Z,74.01
2019-05-19T02:39:38.502Z,74.14
2019-05-19T02:40:38.478Z,74.65
2019-05-19T02:41:38.486Z,74.34
2019-05-19T02:42:38.467Z,74.44
2019-05-19T02:43:38.457Z,74.75
2019-05-19T02:44:38.504Z,74.44
2019-05-19T02:45:38.433Z,74.24
2019-05-19T02:46:38.442Z,74.14
2019-05-19T02:47:38.406Z,74.65
2019-05-19T02:48:38.401Z,74.55
2019-05-19T02:49:38.391Z,74.34
2019-05-19T02:50:51.503Z,75.70
2019-05-19T02:51:39.393Z,74.28
2019-05-19T02:52:38.353Z,75.87
2019-05-19T02:53:38.344Z,74.58
2019-05-19T02:54:38.332Z,74.75
2019-05-19T02:55:38.318Z,74.79
2019-05-19T02:56:38.313Z,74.79
2019-05-19T02:57:38.331Z,74.48
2019-05-19T02:58:38.290Z,75.70
2019-05-19T02:59:38.282Z,74.68
2019-05-19T03:00:38.272Z,74.75
2019-05-19T03:01:38.256Z,74.28
2019-05-19T03:02:38.252Z,74.55
2019-05-19T03:03:38.274Z,74.88
2019-05-19T03:04:38.226Z,74.75
2019-05-19T03:05:38.273Z,74.65
2019-05-19T03:06:38.199Z,74.44
2019-05-19T03:07:38.186Z,73.74
2019-05-19T03:08:38.194Z,73.94
2019-05-19T03:09:38.206Z,73.94
2019-05-19T03:10:38.167Z,74.14
2019-05-19T03:11:38.157Z,73.63
2019-05-19T03:12:38.131Z,74.10
2019-05-19T03:13:38.129Z,73.43
2019-05-19T03:14:38.135Z,73.74
2019-05-19T03:15:38.117Z,73.43
2019-05-19T03:16:38.104Z,73.43
2019-05-19T03:17:38.088Z,73.50
2019-05-19T03:18:38.074Z,73.02
2019-05-19T03:19:38.082Z,73.53
2019-05-19T03:20:38.057Z,73.50
2019-05-19T03:21:38.041Z,73.33
2019-05-19T03:22:38.032Z,73.39
2019-05-19T03:23:38.022Z,73.83
2019-05-19T03:24:38.006Z,73.83
2019-05-19T03:25:38.006Z,74.24
2019-05-19T03:26:37.983Z,74.14
2019-05-19T03:27:37.975Z,74.04
2019-05-19T03:28:37.965Z,73.94
2019-05-19T03:29:37.959Z,73.83
2019-05-19T03:30:37.960Z,73.83
2019-05-19T03:31:37.935Z,74.28
2019-05-19T03:32:37.925Z,74.48
2019-05-19T03:33:37.914Z,74.44
2019-05-19T03:34:38.068Z,74.14
2019-05-19T03:35:37.945Z,74.38
2019-05-19T03:36:37.919Z,74.38
2019-05-19T03:37:37.869Z,74.14
2019-05-19T03:38:37.846Z,74.24
2019-05-19T03:39:37.845Z,74.34
2019-05-19T03:40:37.858Z,74.55
2019-05-19T03:41:37.825Z,74.75
2019-05-19T03:42:37.810Z,74.04
2019-05-19T03:43:37.807Z,73.94
2019-05-19T03:44:37.805Z,73.74
2019-05-19T03:45:37.789Z,74.38
2019-05-19T03:46:37.771Z,73.87
2019-05-19T03:47:37.751Z,74.48
2019-05-19T03:48:37.750Z,73.83
2019-05-19T03:49:37.743Z,74.55
2019-05-19T03:50:37.742Z,73.94
2019-05-19T03:51:37.713Z,73.83
2019-05-19T03:52:37.706Z,74.34
2019-05-19T03:53:37.693Z,74.04
2019-05-19T03:54:37.681Z,73.83
2019-05-19T03:55:37.707Z,73.94
2019-05-19T03:56:37.659Z,74.24
2019-05-19T03:57:38.329Z,73.63
2019-05-19T03:58:37.634Z,73.74
2019-05-19T03:59:37.617Z,73.70
2019-05-19T04:00:37.621Z,73.22
2019-05-19T04:01:37.619Z,73.60
2019-05-19T04:02:37.599Z,72.99
2019-05-19T04:03:37.674Z,72.78
2019-05-19T04:04:37.571Z,73.09
2019-05-19T04:05:37.553Z,72.99
2019-05-19T04:06:37.572Z,72.78
2019-05-19T04:07:37.540Z,73.09
2019-05-19T04:08:37.524Z,72.78
2019-05-19T04:09:37.517Z,72.78
2019-05-19T04:10:37.499Z,72.78
2019-05-19T04:11:37.497Z,71.88
2019-05-19T04:12:37.500Z,72.78
2019-05-19T04:13:37.483Z,72.48
2019-05-19T04:14:37.464Z,72.58
2019-05-19T04:15:37.457Z,72.38
2019-05-19T04:16:37.433Z,73.16
2019-05-19T04:17:37.442Z,72.99
2019-05-19T04:18:37.421Z,72.48
2019-05-19T04:19:37.417Z,72.34
2019-05-19T04:20:37.400Z,72.25
2019-05-19T04:21:48.279Z,72.55
2019-05-19T04:22:38.379Z,72.25
2019-05-19T04:23:37.361Z,72.14
2019-05-19T04:24:37.368Z,72.14
2019-05-19T04:25:37.354Z,72.04
2019-05-19T04:26:37.336Z,71.40
2019-05-19T04:27:37.350Z,72.01
2019-05-19T04:28:37.306Z,71.09
2019-05-19T04:29:39.479Z,71.20
2019-05-19T04:30:37.296Z,71.20
2019-05-19T04:31:37.271Z,71.00
2019-05-19T04:32:37.274Z,70.96
2019-05-19T04:33:37.274Z,70.76
2019-05-19T04:34:37.243Z,70.45
2019-05-19T04:35:37.232Z,70.21
2019-05-19T04:36:37.232Z,70.12
2019-05-19T04:37:37.208Z,69.84
2019-05-19T04:38:37.224Z,70.15
2019-05-19T04:39:37.194Z,70.12
2019-05-19T04:40:37.172Z,69.81
2019-05-19T04:41:40.185Z,70.12
2019-05-19T04:42:37.152Z,69.31
2019-05-19T04:43:37.141Z,69.61
2019-05-19T04:44:37.160Z,69.31
2019-05-19T04:45:37.132Z,69.31
2019-05-19T04:46:37.113Z,69.51
2019-05-19T04:47:37.100Z,69.41
2019-05-19T04:48:37.089Z,69.17
2019-05-19T04:49:37.077Z,68.87
2019-05-19T04:50:37.078Z,68.87
2019-05-19T04:51:37.053Z,68.43
2019-05-19T04:52:37.050Z,68.02
2019-05-19T04:53:37.052Z,67.72
2019-05-19T04:54:37.019Z,68.23
2019-05-19T04:55:37.024Z,68.33
2019-05-19T04:56:37.004Z,68.43
2019-05-19T04:57:37.000Z,67.93
2019-05-19T04:58:36.983Z,67.62
2019-05-19T04:59:36.974Z,67.42
2019-05-19T05:00:36.970Z,67.39
2019-05-19T05:01:36.949Z,67.18
2019-05-19T05:02:36.939Z,67.42
2019-05-19T05:03:37.968Z,67.39
2019-05-19T05:04:36.922Z,67.79
2019-05-19T05:05:36.920Z,67.25
2019-05-19T05:06:36.902Z,66.95
2019-05-19T05:07:36.892Z,66.72
2019-05-19T05:08:36.881Z,66.72
2019-05-19T05:09:36.863Z,66.61
2019-05-19T05:10:36.876Z,65.81
2019-05-19T05:11:36.847Z,65.88
2019-05-19T05:12:36.827Z,65.88
2019-05-19T05:13:36.820Z,65.37
2019-05-19T05:14:36.819Z,65.57
2019-05-19T05:15:36.802Z,65.47
2019-05-19T05:16:36.811Z,65.88
2019-05-19T05:17:36.782Z,65.98
2019-05-19T05:18:36.772Z,65.37
2019-05-19T05:19:36.757Z,65.50
2019-05-19T05:20:36.742Z,65.81
2019-05-19T05:21:36.741Z,66.31
2019-05-19T05:22:36.721Z,66.75
2019-05-19T05:23:36.711Z,66.24
2019-05-19T05:24:36.703Z,66.64
2019-05-19T05:25:36.692Z,66.61
2019-05-19T05:26:36.703Z,66.41
2019-05-19T05:27:36.664Z,65.91
2019-05-19T05:28:36.659Z,66.31
2019-05-19T05:29:36.652Z,66.72
2019-05-19T05:30:36.645Z,65.98
2019-05-19T05:31:36.646Z,65.64
2019-05-19T05:32:36.635Z,64.94
2019-05-19T05:33:36.611Z,64.94
2019-05-19T05:34:36.590Z,65.14
2019-05-19T05:35:36.580Z,64.84
2019-05-19T05:36:36.577Z,64.64
2019-05-19T05:37:36.592Z,64.84
2019-05-19T05:38:36.553Z,64.20
2019-05-19T05:39:36.547Z,64.50
2019-05-19T05:40:36.525Z,64.90
2019-05-19T05:41:36.520Z,64.84
2019-05-19T05:42:36.538Z,64.90
2019-05-19T05:43:36.514Z,64.37
2019-05-19T05:44:36.486Z,63.30
2019-05-19T05:45:36.479Z,61.23
2019-05-19T05:46:36.466Z,61.10
2019-05-19T05:47:36.477Z,59.23
2019-05-19T05:48:36.454Z,57.97
2019-05-19T05:49:36.443Z,57.74
2019-05-19T05:50:36.435Z,55.91
2019-05-19T05:51:36.429Z,55.68
2019-05-19T05:52:38.871Z,55.53
2019-05-19T05:53:36.415Z,57.06
2019-05-19T05:54:36.383Z,58.22
2019-05-19T05:55:36.362Z,58.50
2019-05-19T05:56:36.363Z,57.26
2019-05-19T05:57:36.352Z,55.91
2019-05-19T05:58:36.347Z,54.72
2019-05-19T05:59:36.323Z,53.07
2019-05-19T06:00:36.329Z,51.50
2019-05-19T06:01:36.305Z,50.99
2019-05-19T06:02:36.309Z,49.95
2019-05-19T06:03:36.305Z,50.15
2019-05-19T06:04:36.274Z,48.90
2019-05-19T06:05:36.267Z,48.90
2019-05-19T06:06:36.258Z,47.88
2019-05-19T06:07:36.237Z,47.96
2019-05-19T06:08:36.246Z,46.91
2019-05-19T06:09:36.219Z,47.08
2019-05-19T06:10:36.212Z,48.60
2019-05-19T06:11:36.199Z,48.33
2019-05-19T06:12:36.182Z,47.27
2019-05-19T06:13:36.194Z,45.97
2019-05-19T06:14:36.171Z,46.25
2019-05-19T06:15:36.159Z,45.01
2019-05-19T06:16:36.147Z,44.29
2019-05-19T06:17:36.145Z,44.15
2019-05-19T06:18:36.126Z,42.35
2019-05-19T06:19:36.128Z,43.10
2019-05-19T06:20:36.109Z,44.84
2019-05-19T06:21:36.099Z,44.71
2019-05-19T06:22:36.090Z,44.12
2019-05-19T06:23:36.078Z,43.98
2019-05-19T06:24:36.069Z,43.42
2019-05-19T06:25:36.207Z,42.13
2019-05-19T06:26:36.040Z,42.85
2019-05-19T06:27:36.027Z,42.05
2019-05-19T06:28:36.028Z,42.37
2019-05-19T06:29:36.062Z,43.30
2019-05-19T06:30:35.999Z,44.14
2019-05-19T06:31:35.986Z,44.36
2019-05-19T06:32:35.983Z,45.03
2019-05-19T06:33:35.968Z,42.99
2019-05-19T06:34:35.967Z,42.80
2019-05-19T06:35:35.966Z,40.66
2019-05-19T06:36:35.938Z,39.18
2019-05-19T06:37:35.931Z,40.66
2019-05-19T06:38:35.915Z,40.29
2019-05-19T06:39:35.903Z,40.05
2019-05-19T06:40:35.925Z,39.89
2019-05-19T06:41:35.888Z,39.97
2019-05-19T06:42:35.876Z,39.75
2019-05-19T06:43:35.934Z,38.27
2019-05-19T06:44:35.849Z,40.19
2019-05-19T06:45:35.860Z,39.89
2019-05-19T06:46:35.839Z,40.33
2019-05-19T06:47:35.829Z,41.02
2019-05-19T06:48:35.824Z,42.23
2019-05-19T06:49:35.794Z,42.65
2019-05-19T06:50:35.787Z,41.08
2019-05-19T06:51:35.786Z,40.34
2019-05-19T06:52:35.763Z,38.41
2019-05-19T06:53:35.768Z,38.63
2019-05-19T06:54:35.740Z,39.34
2019-05-19T06:55:35.728Z,39.36
2019-05-19T06:56:35.741Z,39.24
2019-05-19T06:57:35.717Z,37.43
2019-05-19T06:58:35.703Z,38.35
2019-05-19T06:59:35.710Z,38.76
2019-05-19T07:00:35.673Z,38.67
2019-05-19T07:01:35.696Z,39.87
2019-05-19T07:02:35.659Z,39.52
2019-05-19T07:03:35.650Z,38.96
2019-05-19T07:04:35.647Z,39.64
2019-05-19T07:05:35.629Z,39.00
2019-05-19T07:06:35.636Z,36.86
2019-05-19T07:07:35.606Z,37.32
2019-05-19T07:08:35.598Z,36.10
2019-05-19T07:09:35.589Z,35.59
2019-05-19T07:10:35.577Z,35.33
2019-05-19T07:11:35.587Z,35.38
2019-05-19T07:12:35.548Z,35.97
2019-05-19T07:13:35.546Z,36.29
2019-05-19T07:14:35.528Z,36.94
2019-05-19T07:15:35.526Z,35.90
2019-05-19T07:16:35.542Z,35.47
2019-05-19T07:17:35.518Z,34.77
2019-05-19T07:18:35.486Z,33.56
2019-05-19T07:19:35.478Z,32.76
2019-05-19T07:20:35.472Z,32.74
2019-05-19T07:21:35.467Z,33.04
2019-05-19T07:22:37.667Z,33.36
2019-05-19T07:23:35.444Z,33.95
2019-05-19T07:24:35.424Z,34.03
2019-05-19T07:25:35.426Z,33.53
2019-05-19T07:26:35.404Z,32.74
2019-05-19T07:27:35.410Z,32.03
2019-05-19T07:28:35.389Z,32.63
2019-05-19T07:29:35.383Z,32.87
2019-05-19T07:30:35.369Z,34.06
2019-05-19T07:31:35.364Z,34.30
2019-05-19T07:32:35.360Z,34.61
2019-05-19T07:33:35.335Z,35.30
2019-05-19T07:34:35.336Z,33.03
2019-05-19T07:35:35.330Z,35.02
2019-05-19T07:36:35.313Z,34.64
2019-05-19T07:37:35.315Z,34.72
2019-05-19T07:38:35.280Z,34.15
2019-05-19T07:39:35.276Z,35.50
2019-05-19T07:40:35.287Z,37.03
2019-05-19T07:41:35.266Z,37.62
2019-05-19T07:42:35.248Z,36.52
2019-05-19T07:43:35.253Z,36.34
2019-05-19T07:44:35.227Z,36.24
2019-05-19T07:45:35.212Z,36.46
2019-05-19T07:46:35.204Z,36.65
2019-05-19T07:47:35.199Z,36.75
2019-05-19T07:48:35.208Z,36.02
2019-05-19T07:49:35.179Z,36.57
2019-05-19T07:50:38.012Z,36.69
2019-05-19T07:51:35.150Z,37.26
2019-05-19T07:52:35.217Z,36.97
2019-05-19T07:53:42.517Z,36.06
2019-05-19T07:54:36.127Z,34.97
2019-05-19T07:55:35.117Z,36.41
2019-05-19T07:56:35.105Z,37.08
2019-05-19T07:57:35.090Z,36.95
2019-05-19T07:58:35.104Z,35.33
2019-05-19T07:59:35.073Z,34.33
2019-05-19T08:00:35.085Z,35.25
2019-05-19T08:01:35.058Z,35.53
2019-05-19T08:02:35.047Z,35.35
2019-05-19T08:03:35.060Z,35.85
2019-05-19T08:04:35.026Z,35.15
2019-05-19T08:05:35.022Z,35.81
2019-05-19T08:06:35.025Z,35.08
2019-05-19T08:07:35.028Z,35.08
2019-05-19T08:08:34.986Z,34.51
2019-05-19T08:09:34.970Z,36.57
2019-05-19T08:10:34.954Z,37.79
2019-05-19T08:11:34.944Z,38.84
2019-05-19T08:12:34.940Z,39.65
2019-05-19T08:13:34.978Z,38.54
2019-05-19T08:14:34.923Z,38.51
2019-05-19T08:15:34.915Z,37.51
2019-05-19T08:16:34.896Z,37.79
2019-05-19T08:17:34.896Z,36.85
2019-05-19T08:18:34.915Z,36.11
2019-05-19T08:19:34.871Z,34.25
2019-05-19T08:20:34.889Z,33.15
2019-05-19T08:21:34.867Z,33.33
2019-05-19T08:22:34.838Z,33.23
2019-05-19T08:23:34.840Z,32.09
2019-05-19T08:24:34.847Z,31.38
2019-05-19T08:25:34.822Z,33.75
2019-05-19T08:26:34.805Z,35.41
2019-05-19T08:27:34.798Z,36.55
2019-05-19T08:28:34.786Z,36.04
2019-05-19T08:29:34.810Z,35.50
2019-05-19T08:30:34.757Z,34.48
2019-05-19T08:31:34.763Z,35.07
2019-05-19T08:32:34.765Z,33.26
2019-05-19T08:33:34.749Z,33.91
2019-05-19T08:34:34.727Z,35.20
2019-05-19T08:35:34.747Z,34.44
2019-05-19T08:36:34.715Z,35.99
2019-05-19T08:37:34.693Z,36.31
2019-05-19T08:38:34.691Z,36.98
2019-05-19T08:39:34.678Z,36.24
2019-05-19T08:40:34.679Z,35.73
2019-05-19T08:41:34.649Z,35.20
2019-05-19T08:42:34.644Z,34.01
2019-05-19T08:43:34.630Z,34.06
2019-05-19T08:44:34.636Z,34.31
2019-05-19T08:45:34.642Z,34.38
2019-05-19T08:46:34.607Z,33.80
2019-05-19T08:47:34.602Z,32.67
2019-05-19T08:48:34.583Z,33.07
2019-05-19T08:49:34.596Z,32.05
2019-05-19T08:50:34.573Z,32.02
2019-05-19T08:51:34.554Z,29.80
2019-05-19T08:52:34.550Z,30.52
2019-05-19T08:53:34.540Z,32.08
2019-05-19T08:54:34.516Z,32.18
2019-05-19T08:55:34.531Z,32.17
2019-05-19T08:56:34.514Z,32.54
2019-05-19T08:57:34.507Z,32.21
2019-05-19T08:58:34.497Z,30.91
2019-05-19T08:59:34.485Z,30.80
2019-05-19T09:00:38.283Z,30.19
2019-05-19T09:01:34.453Z,30.10
2019-05-19T09:02:34.445Z,30.68
2019-05-19T09:03:34.435Z,31.55
2019-05-19T09:04:34.434Z,31.09
2019-05-19T09:05:34.427Z,33.02
2019-05-19T09:06:34.485Z,34.28
2019-05-19T09:07:34.401Z,34.25
2019-05-19T09:08:34.388Z,33.95
2019-05-19T09:09:34.381Z,32.65
2019-05-19T09:10:34.374Z,33.53
2019-05-19T09:11:34.367Z,33.02
2019-05-19T09:12:34.358Z,32.45
2019-05-19T09:13:34.337Z,33.89
2019-05-19T09:14:34.339Z,33.79
2019-05-19T09:15:34.331Z,33.79
2019-05-19T09:16:34.337Z,34.31
2019-05-19T09:17:34.338Z,35.12
2019-05-19T09:18:34.299Z,35.24
2019-05-19T09:19:34.298Z,35.12
2019-05-19T09:20:34.269Z,35.63
2019-05-19T09:21:34.426Z,35.91
2019-05-19T09:22:34.278Z,34.79
2019-05-19T09:23:34.251Z,35.18
2019-05-19T09:24:37.196Z,35.41
2019-05-19T09:25:34.234Z,35.52
2019-05-19T09:26:34.221Z,34.67
2019-05-19T09:27:34.220Z,33.53
2019-05-19T09:28:34.216Z,33.03
2019-05-19T09:29:34.195Z,32.84
2019-05-19T09:30:34.188Z,32.82
2019-05-19T09:31:34.173Z,31.79
2019-05-19T09:32:34.177Z,32.02
2019-05-19T09:33:34.152Z,32.54
2019-05-19T09:34:34.154Z,33.25
2019-05-19T09:35:34.133Z,32.53
2019-05-19T09:36:34.140Z,33.65
2019-05-19T09:37:34.128Z,34.44
2019-05-19T09:38:34.111Z,34.11
2019-05-19T09:39:34.099Z,33.53
2019-05-19T09:40:34.204Z,33.94
2019-05-19T09:41:34.103Z,34.23
2019-05-19T09:42:34.096Z,32.31
2019-05-19T09:43:34.064Z,31.81
2019-05-19T09:44:34.046Z,31.27
2019-05-19T09:45:34.040Z,31.06
2019-05-19T09:46:34.036Z,29.63
2019-05-19T09:47:34.062Z,28.61
2019-05-19T09:48:34.039Z,28.53
2019-05-19T09:49:34.008Z,28.77
2019-05-19T09:50:34.001Z,29.63
2019-05-19T09:51:33.995Z,28.81
2019-05-19T09:52:33.972Z,27.73
2019-05-19T09:53:33.984Z,28.12
2019-05-19T09:54:44.724Z,28.54
2019-05-19T09:55:34.946Z,29.38
2019-05-19T09:56:33.945Z,29.60
2019-05-19T09:57:33.936Z,30.04
2019-05-19T09:58:33.940Z,30.63
2019-05-19T09:59:33.920Z,30.30
2019-05-19T10:00:33.915Z,28.97
2019-05-19T10:01:33.901Z,29.60
2019-05-19T10:02:33.891Z,31.17
2019-05-19T10:03:33.895Z,30.02
2019-05-19T10:04:33.866Z,31.95
2019-05-19T10:05:33.860Z,32.76
2019-05-19T10:06:33.860Z,33.49
2019-05-19T10:07:33.846Z,32.39
2019-05-19T10:08:33.858Z,33.48
2019-05-19T10:09:33.825Z,32.77
2019-05-19T10:10:33.820Z,32.65
2019-05-19T10:11:33.824Z,32.74
2019-05-19T10:12:33.804Z,31.92
2019-05-19T10:13:33.802Z,31.22
2019-05-19T10:14:33.790Z,31.53
2019-05-19T10:15:33.770Z,31.61
2019-05-19T10:16:33.763Z,31.87
2019-05-19T10:17:33.752Z,30.64
2019-05-19T10:18:33.984Z,30.05
2019-05-19T10:19:33.734Z,30.08
2019-05-19T10:20:33.735Z,30.68
2019-05-19T10:21:33.741Z,32.51
2019-05-19T10:22:33.966Z,32.43
2019-05-19T10:23:33.721Z,32.79
2019-05-19T10:24:33.710Z,31.76
2019-05-19T10:25:33.687Z,31.01
2019-05-19T10:26:33.674Z,28.92
2019-05-19T10:27:33.750Z,30.19
2019-05-19T10:28:33.656Z,31.45
2019-05-19T10:29:33.667Z,32.71
2019-05-19T10:30:33.647Z,32.69
2019-05-19T10:31:33.631Z,32.79
2019-05-19T10:32:33.623Z,31.27
2019-05-19T10:33:34.819Z,30.27
2019-05-19T10:34:33.628Z,30.18
2019-05-19T10:35:33.599Z,31.37
2019-05-19T10:36:33.583Z,31.68
2019-05-19T10:37:33.584Z,31.71
2019-05-19T10:38:33.567Z,32.18
2019-05-19T10:39:33.575Z,31.77
2019-05-19T10:40:33.561Z,29.46
2019-05-19T10:41:33.555Z,30.10
2019-05-19T10:42:33.542Z,30.62
2019-05-19T10:43:33.534Z,31.40
2019-05-19T10:44:33.606Z,30.56
2019-05-19T10:45:33.504Z,32.65
2019-05-19T10:46:33.510Z,32.24
2019-05-19T10:47:33.499Z,30.93
2019-05-19T10:48:33.477Z,30.32
2019-05-19T10:49:33.486Z,31.10
2019-05-19T10:50:33.463Z,30.53
2019-05-19T10:51:33.456Z,31.70
2019-05-19T10:52:33.502Z,30.62
2019-05-19T10:53:33.447Z,29.90
2019-05-19T10:54:33.457Z,29.48
2019-05-19T10:55:36.477Z,30.68
2019-05-19T10:56:33.409Z,29.68
2019-05-19T10:57:33.403Z,29.38
2019-05-19T10:58:33.393Z,29.80
2019-05-19T10:59:33.392Z,30.68
2019-05-19T11:00:33.402Z,30.65
2019-05-19T11:01:33.433Z,29.77
2019-05-19T11:02:33.359Z,30.98
2019-05-19T11:03:33.368Z,30.60
2019-05-19T11:04:33.357Z,31.89
2019-05-19T11:05:33.348Z,31.40
2019-05-19T11:06:33.334Z,30.55
2019-05-19T11:07:33.322Z,30.65
2019-05-19T11:08:33.307Z,31.17
2019-05-19T11:09:33.316Z,32.71
2019-05-19T11:10:33.314Z,32.92
2019-05-19T11:11:33.279Z,31.94
2019-05-19T11:12:33.285Z,33.43
2019-05-19T11:13:33.265Z,34.11
2019-05-19T11:14:33.255Z,33.94
2019-05-19T11:15:33.266Z,32.90
2019-05-19T11:16:33.264Z,31.24
2019-05-19T11:17:33.219Z,30.75
2019-05-19T11:18:33.225Z,31.86
2019-05-19T11:19:33.223Z,32.40
2019-05-19T11:20:33.237Z,33.53
2019-05-19T11:21:33.186Z,35.53
2019-05-19T11:22:33.217Z,35.64
2019-05-19T11:23:33.175Z,35.66
2019-05-19T11:24:33.176Z,36.27
2019-05-19T11:25:34.446Z,35.61
2019-05-19T11:26:33.143Z,36.57
2019-05-19T11:27:33.132Z,37.02
2019-05-19T11:28:33.112Z,37.51
2019-05-19T11:29:33.108Z,37.04
2019-05-19T11:30:33.122Z,35.83
2019-05-19T11:31:33.087Z,33.10
2019-05-19T11:32:33.085Z,32.07
2019-05-19T11:33:33.071Z,31.64
2019-05-19T11:34:33.052Z,31.04
2019-05-19T11:35:33.044Z,30.12
2019-05-19T11:36:33.102Z,30.10
2019-05-19T11:37:33.039Z,29.16
2019-05-19T11:38:33.026Z,28.53
2019-05-19T11:39:33.028Z,28.45
2019-05-19T11:40:32.997Z,30.42
2019-05-19T11:41:33.008Z,31.40
2019-05-19T11:42:32.987Z,30.63
2019-05-19T11:43:32.968Z,30.78
2019-05-19T11:44:33.004Z,30.49
2019-05-19T11:45:32.994Z,29.85
2019-05-19T11:46:32.968Z,29.36
2019-05-19T11:47:32.971Z,28.58
2019-05-19T11:48:32.970Z,28.65
2019-05-19T11:49:32.918Z,28.04
2019-05-19T11:50:32.919Z,28.26
2019-05-19T11:51:32.905Z,28.45
2019-05-19T11:52:32.900Z,28.68
2019-05-19T11:53:32.944Z,30.60
2019-05-19T11:54:32.875Z,31.23
2019-05-19T11:55:32.885Z,33.65
2019-05-19T11:56:32.883Z,32.61
2019-05-19T11:57:32.851Z,30.27
2019-05-19T11:58:32.863Z,30.05
2019-05-19T11:59:32.840Z,30.46
2019-05-19T12:00:32.817Z,31.04
2019-05-19T12:01:32.806Z,33.34
2019-05-19T12:02:32.807Z,34.05
2019-05-19T12:03:32.803Z,34.06
2019-05-19T12:04:32.803Z,34.28
2019-05-19T12:05:32.795Z,35.00
2019-05-19T12:06:39.600Z,35.91
2019-05-19T12:07:33.745Z,36.71
2019-05-19T12:08:32.760Z,33.95
2019-05-19T12:09:32.733Z,32.17
2019-05-19T12:10:32.725Z,30.04
2019-05-19T12:11:32.717Z,29.74
2019-05-19T12:12:32.695Z,29.46
2019-05-19T12:13:34.952Z,28.58
2019-05-19T12:14:32.692Z,28.69
2019-05-19T12:15:32.669Z,29.28
2019-05-19T12:16:32.666Z,29.94
2019-05-19T12:17:32.658Z,28.91
2019-05-19T12:18:32.653Z,27.98
2019-05-19T12:19:32.658Z,29.00
2019-05-19T12:20:32.632Z,29.16
2019-05-19T12:21:32.617Z,29.45
2019-05-19T12:22:32.613Z,30.43
2019-05-19T12:23:32.605Z,29.02
2019-05-19T12:24:32.624Z,27.70
2019-05-19T12:25:32.597Z,28.28
2019-05-19T12:26:34.798Z,27.55
2019-05-19T12:27:32.588Z,27.90
2019-05-19T12:28:32.562Z,27.16
2019-05-19T12:29:32.581Z,27.58
2019-05-19T12:30:32.555Z,28.58
2019-05-19T12:31:32.546Z,28.54
2019-05-19T12:32:32.536Z,32.15
2019-05-19T12:33:32.523Z,32.56
2019-05-19T12:34:32.530Z,32.78
2019-05-19T12:35:32.502Z,32.22
2019-05-19T12:36:32.514Z,29.98
2019-05-19T12:37:32.498Z,29.04
2019-05-19T12:38:32.476Z,28.23
2019-05-19T12:39:32.483Z,27.93
2019-05-19T12:40:32.500Z,27.44
2019-05-19T12:41:32.457Z,28.55
2019-05-19T12:42:32.445Z,28.83
2019-05-19T12:43:32.437Z,28.94
2019-05-19T12:44:32.433Z,28.57
2019-05-19T12:45:32.457Z,28.89
2019-05-19T12:46:32.405Z,29.00
2019-05-19T12:47:32.405Z,29.94
2019-05-19T12:48:32.449Z,32.69
2019-05-19T12:49:32.403Z,33.07
2019-05-19T12:50:32.378Z,32.81
2019-05-19T12:51:32.375Z,33.14
2019-05-19T12:52:32.362Z,33.41